sensor_id;sensor_type;location;lat;lon;timestamp;P1;durP1;ratioP1;P2;durP2;ratioP2
71080;SDS011;58740;50.672;18.690;2023-12-20T00:02:17;18.90;;;12.30;;
71080;SDS011;58740;50.672;18.690;2023-12-20T00:04:51;21.50;;;14.10;;
71080;SDS011;58740;50.672;18.690;2023-12-20T00:07:24;20.30;;;13.50;;
71080;SDS011;58740;50.672;18.690;2023-12-20T00:09:57;17.60;;;11.80;;
71080;SDS011;58740;50.672;18.690;2023-12-20T00:12:31;19.20;;;13.10;;
71080;SDS011;58740;50.672;18.690;2023-12-20T00:15:04;19.70;;;11.90;;
71080;SDS011;58740;50.672;18.690;2023-12-20T00:17:38;16.70;;;10.00;;
71080;SDS011;58740;50.672;18.690;2023-12-20T00:20:13;16.70;;;8.80;;
71080;SDS011;58740;50.672;18.690;2023-12-20T00:22:46;14.10;;;7.20;;
71080;SDS011;58740;50.672;18.690;2023-12-20T00:25:19;13.50;;;7.00;;
71080;SDS011;58740;50.672;18.690;2023-12-20T00:27:53;15.10;;;7.00;;
71080;SDS011;58740;50.672;18.690;2023-12-20T00:30:26;16.30;;;7.50;;
71080;SDS011;58740;50.672;18.690;2023-12-20T00:32:59;13.80;;;7.60;;
71080;SDS011;58740;50.672;18.690;2023-12-20T00:35:33;17.30;;;8.70;;
71080;SDS011;58740;50.672;18.690;2023-12-20T00:38:06;15.40;;;8.30;;
71080;SDS011;58740;50.672;18.690;2023-12-20T00:40:40;16.10;;;8.50;;
71080;SDS011;58740;50.672;18.690;2023-12-20T00:43:13;18.50;;;10.50;;
71080;SDS011;58740;50.672;18.690;2023-12-20T00:45:47;18.60;;;10.70;;
71080;SDS011;58740;50.672;18.690;2023-12-20T00:48:20;18.30;;;10.00;;
71080;SDS011;58740;50.672;18.690;2023-12-20T00:50:53;16.30;;;9.20;;
71080;SDS011;58740;50.672;18.690;2023-12-20T00:53:26;14.60;;;8.00;;
71080;SDS011;58740;50.672;18.690;2023-12-20T00:55:59;14.20;;;8.00;;
71080;SDS011;58740;50.672;18.690;2023-12-20T00:58:32;19.20;;;9.40;;
71080;SDS011;58740;50.672;18.690;2023-12-20T01:01:06;16.40;;;9.40;;
71080;SDS011;58740;50.672;18.690;2023-12-20T01:03:39;19.50;;;10.50;;
71080;SDS011;58740;50.672;18.690;2023-12-20T01:06:12;21.00;;;12.20;;
71080;SDS011;58740;50.672;18.690;2023-12-20T01:08:46;20.30;;;12.30;;
71080;SDS011;58740;50.672;18.690;2023-12-20T01:11:19;20.00;;;12.20;;
71080;SDS011;58740;50.672;18.690;2023-12-20T01:13:52;22.80;;;13.80;;
71080;SDS011;58740;50.672;18.690;2023-12-20T01:16:26;24.50;;;14.50;;
71080;SDS011;58740;50.672;18.690;2023-12-20T01:18:59;25.00;;;15.80;;
71080;SDS011;58740;50.672;18.690;2023-12-20T01:21:32;21.90;;;13.00;;
71080;SDS011;58740;50.672;18.690;2023-12-20T01:24:05;17.60;;;9.90;;
71080;SDS011;58740;50.672;18.690;2023-12-20T01:26:40;15.60;;;8.10;;
71080;SDS011;58740;50.672;18.690;2023-12-20T01:29:13;18.00;;;7.80;;
71080;SDS011;58740;50.672;18.690;2023-12-20T01:31:46;19.10;;;8.80;;
71080;SDS011;58740;50.672;18.690;2023-12-20T01:34:20;16.10;;;9.70;;
71080;SDS011;58740;50.672;18.690;2023-12-20T01:36:53;15.30;;;9.40;;
71080;SDS011;58740;50.672;18.690;2023-12-20T01:39:27;16.60;;;9.00;;
71080;SDS011;58740;50.672;18.690;2023-12-20T01:42:00;15.10;;;9.20;;
71080;SDS011;58740;50.672;18.690;2023-12-20T01:44:33;16.00;;;9.00;;
71080;SDS011;58740;50.672;18.690;2023-12-20T01:47:07;13.80;;;9.00;;
71080;SDS011;58740;50.672;18.690;2023-12-20T01:49:41;16.60;;;9.00;;
71080;SDS011;58740;50.672;18.690;2023-12-20T01:52:15;17.00;;;8.80;;
71080;SDS011;58740;50.672;18.690;2023-12-20T01:54:48;15.90;;;9.70;;
71080;SDS011;58740;50.672;18.690;2023-12-20T01:57:22;18.40;;;9.00;;
71080;SDS011;58740;50.672;18.690;2023-12-20T01:59:56;18.00;;;9.20;;
71080;SDS011;58740;50.672;18.690;2023-12-20T02:02:30;17.70;;;9.30;;
71080;SDS011;58740;50.672;18.690;2023-12-20T02:05:05;18.10;;;9.00;;
71080;SDS011;58740;50.672;18.690;2023-12-20T02:07:40;17.00;;;9.50;;
71080;SDS011;58740;50.672;18.690;2023-12-20T02:10:13;21.70;;;13.70;;
71080;SDS011;58740;50.672;18.690;2023-12-20T02:12:47;23.70;;;15.10;;
71080;SDS011;58740;50.672;18.690;2023-12-20T02:15:20;24.70;;;15.20;;
71080;SDS011;58740;50.672;18.690;2023-12-20T02:17:54;22.60;;;13.50;;
71080;SDS011;58740;50.672;18.690;2023-12-20T02:20:28;22.20;;;11.80;;
71080;SDS011;58740;50.672;18.690;2023-12-20T02:23:01;20.40;;;11.80;;
71080;SDS011;58740;50.672;18.690;2023-12-20T02:25:34;20.60;;;11.00;;
71080;SDS011;58740;50.672;18.690;2023-12-20T02:28:08;17.20;;;9.70;;
71080;SDS011;58740;50.672;18.690;2023-12-20T02:30:41;18.60;;;9.20;;
71080;SDS011;58740;50.672;18.690;2023-12-20T02:33:15;15.60;;;8.60;;
71080;SDS011;58740;50.672;18.690;2023-12-20T02:35:48;14.90;;;8.80;;
71080;SDS011;58740;50.672;18.690;2023-12-20T02:38:23;15.80;;;8.30;;
71080;SDS011;58740;50.672;18.690;2023-12-20T02:40:56;16.80;;;9.10;;
71080;SDS011;58740;50.672;18.690;2023-12-20T02:43:29;16.40;;;9.20;;
71080;SDS011;58740;50.672;18.690;2023-12-20T02:46:02;19.50;;;9.30;;
71080;SDS011;58740;50.672;18.690;2023-12-20T02:48:36;22.70;;;11.30;;
71080;SDS011;58740;50.672;18.690;2023-12-20T02:51:09;25.30;;;14.90;;
71080;SDS011;58740;50.672;18.690;2023-12-20T02:53:42;21.70;;;13.60;;
71080;SDS011;58740;50.672;18.690;2023-12-20T02:56:16;25.20;;;14.80;;
71080;SDS011;58740;50.672;18.690;2023-12-20T02:58:49;23.30;;;13.90;;
71080;SDS011;58740;50.672;18.690;2023-12-20T03:01:22;21.60;;;13.40;;
71080;SDS011;58740;50.672;18.690;2023-12-20T03:03:55;20.80;;;13.10;;
71080;SDS011;58740;50.672;18.690;2023-12-20T03:06:29;18.20;;;11.50;;
71080;SDS011;58740;50.672;18.690;2023-12-20T03:09:02;22.20;;;13.80;;
71080;SDS011;58740;50.672;18.690;2023-12-20T03:11:36;23.40;;;14.60;;
71080;SDS011;58740;50.672;18.690;2023-12-20T03:14:09;17.40;;;11.60;;
71080;SDS011;58740;50.672;18.690;2023-12-20T03:16:42;23.10;;;12.90;;
71080;SDS011;58740;50.672;18.690;2023-12-20T03:19:20;18.00;;;11.30;;
71080;SDS011;58740;50.672;18.690;2023-12-20T03:21:54;18.80;;;9.80;;
71080;SDS011;58740;50.672;18.690;2023-12-20T03:24:27;15.50;;;8.30;;
71080;SDS011;58740;50.672;18.690;2023-12-20T03:27:00;16.40;;;8.80;;
71080;SDS011;58740;50.672;18.690;2023-12-20T03:29:33;15.20;;;7.80;;
71080;SDS011;58740;50.672;18.690;2023-12-20T03:32:07;14.90;;;7.70;;
71080;SDS011;58740;50.672;18.690;2023-12-20T03:34:40;13.90;;;7.60;;
71080;SDS011;58740;50.672;18.690;2023-12-20T03:37:14;14.30;;;7.00;;
71080;SDS011;58740;50.672;18.690;2023-12-20T03:39:47;16.90;;;7.60;;
71080;SDS011;58740;50.672;18.690;2023-12-20T03:42:20;16.00;;;7.40;;
71080;SDS011;58740;50.672;18.690;2023-12-20T03:44:53;13.10;;;6.80;;
71080;SDS011;58740;50.672;18.690;2023-12-20T03:47:27;11.90;;;5.10;;
71080;SDS011;58740;50.672;18.690;2023-12-20T03:50:00;16.50;;;7.70;;
71080;SDS011;58740;50.672;18.690;2023-12-20T03:52:34;14.80;;;6.90;;
71080;SDS011;58740;50.672;18.690;2023-12-20T03:55:07;17.60;;;7.20;;
71080;SDS011;58740;50.672;18.690;2023-12-20T03:57:41;14.40;;;6.90;;
71080;SDS011;58740;50.672;18.690;2023-12-20T04:00:15;20.90;;;8.20;;
71080;SDS011;58740;50.672;18.690;2023-12-20T04:02:49;15.60;;;7.30;;
71080;SDS011;58740;50.672;18.690;2023-12-20T04:05:23;11.70;;;5.20;;
71080;SDS011;58740;50.672;18.690;2023-12-20T04:07:56;13.20;;;6.40;;
71080;SDS011;58740;50.672;18.690;2023-12-20T04:10:31;11.20;;;6.20;;
71080;SDS011;58740;50.672;18.690;2023-12-20T04:13:05;9.60;;;4.70;;
71080;SDS011;58740;50.672;18.690;2023-12-20T04:15:38;11.70;;;5.40;;
71080;SDS011;58740;50.672;18.690;2023-12-20T04:18:11;9.80;;;5.10;;
71080;SDS011;58740;50.672;18.690;2023-12-20T04:20:45;9.00;;;4.90;;
71080;SDS011;58740;50.672;18.690;2023-12-20T04:23:18;8.00;;;3.30;;
71080;SDS011;58740;50.672;18.690;2023-12-20T04:25:51;8.30;;;4.80;;
71080;SDS011;58740;50.672;18.690;2023-12-20T04:28:24;10.50;;;4.00;;
71080;SDS011;58740;50.672;18.690;2023-12-20T04:31:00;9.70;;;4.30;;
71080;SDS011;58740;50.672;18.690;2023-12-20T04:33:34;7.60;;;4.20;;
71080;SDS011;58740;50.672;18.690;2023-12-20T04:36:08;10.30;;;4.90;;
71080;SDS011;58740;50.672;18.690;2023-12-20T04:38:41;6.30;;;3.00;;
71080;SDS011;58740;50.672;18.690;2023-12-20T04:41:14;7.60;;;3.60;;
71080;SDS011;58740;50.672;18.690;2023-12-20T04:43:49;8.50;;;4.10;;
71080;SDS011;58740;50.672;18.690;2023-12-20T04:46:22;9.10;;;4.20;;
71080;SDS011;58740;50.672;18.690;2023-12-20T04:48:55;9.10;;;4.70;;
71080;SDS011;58740;50.672;18.690;2023-12-20T04:51:28;9.60;;;5.00;;
71080;SDS011;58740;50.672;18.690;2023-12-20T04:54:04;8.20;;;3.90;;
71080;SDS011;58740;50.672;18.690;2023-12-20T04:56:37;9.70;;;4.80;;
71080;SDS011;58740;50.672;18.690;2023-12-20T04:59:11;9.10;;;5.70;;
71080;SDS011;58740;50.672;18.690;2023-12-20T05:01:44;9.40;;;4.80;;
71080;SDS011;58740;50.672;18.690;2023-12-20T05:04:17;8.50;;;3.70;;
71080;SDS011;58740;50.672;18.690;2023-12-20T05:06:51;10.20;;;5.10;;
71080;SDS011;58740;50.672;18.690;2023-12-20T05:09:24;8.70;;;4.10;;
71080;SDS011;58740;50.672;18.690;2023-12-20T05:11:57;8.50;;;5.20;;
71080;SDS011;58740;50.672;18.690;2023-12-20T05:14:31;7.50;;;3.80;;
71080;SDS011;58740;50.672;18.690;2023-12-20T05:17:04;7.80;;;4.80;;
71080;SDS011;58740;50.672;18.690;2023-12-20T05:19:37;10.00;;;5.40;;
71080;SDS011;58740;50.672;18.690;2023-12-20T05:22:11;8.00;;;4.90;;
71080;SDS011;58740;50.672;18.690;2023-12-20T05:24:44;7.40;;;3.60;;
71080;SDS011;58740;50.672;18.690;2023-12-20T05:27:17;7.60;;;3.90;;
71080;SDS011;58740;50.672;18.690;2023-12-20T05:29:50;9.90;;;4.40;;
71080;SDS011;58740;50.672;18.690;2023-12-20T05:32:28;7.80;;;3.90;;
71080;SDS011;58740;50.672;18.690;2023-12-20T05:35:01;8.80;;;4.30;;
71080;SDS011;58740;50.672;18.690;2023-12-20T05:37:35;8.80;;;5.30;;
71080;SDS011;58740;50.672;18.690;2023-12-20T05:40:10;9.50;;;4.70;;
71080;SDS011;58740;50.672;18.690;2023-12-20T05:42:43;8.60;;;5.30;;
71080;SDS011;58740;50.672;18.690;2023-12-20T05:45:17;9.10;;;4.80;;
71080;SDS011;58740;50.672;18.690;2023-12-20T05:47:50;8.10;;;3.80;;
71080;SDS011;58740;50.672;18.690;2023-12-20T05:50:24;20.50;;;10.30;;
71080;SDS011;58740;50.672;18.690;2023-12-20T05:52:57;18.30;;;8.90;;
71080;SDS011;58740;50.672;18.690;2023-12-20T05:55:30;14.90;;;7.60;;
71080;SDS011;58740;50.672;18.690;2023-12-20T05:58:04;12.90;;;5.70;;
71080;SDS011;58740;50.672;18.690;2023-12-20T06:00:37;12.70;;;6.20;;
71080;SDS011;58740;50.672;18.690;2023-12-20T06:03:10;26.40;;;10.30;;
71080;SDS011;58740;50.672;18.690;2023-12-20T06:05:44;27.70;;;10.20;;
71080;SDS011;58740;50.672;18.690;2023-12-20T06:08:17;32.10;;;12.40;;
71080;SDS011;58740;50.672;18.690;2023-12-20T06:10:50;28.00;;;9.00;;
71080;SDS011;58740;50.672;18.690;2023-12-20T06:13:23;30.90;;;9.80;;
71080;SDS011;58740;50.672;18.690;2023-12-20T06:15:57;24.80;;;9.20;;
71080;SDS011;58740;50.672;18.690;2023-12-20T06:18:30;21.40;;;8.40;;
71080;SDS011;58740;50.672;18.690;2023-12-20T06:21:04;29.80;;;12.50;;
71080;SDS011;58740;50.672;18.690;2023-12-20T06:23:38;30.20;;;12.30;;
71080;SDS011;58740;50.672;18.690;2023-12-20T06:26:11;31.30;;;13.60;;
71080;SDS011;58740;50.672;18.690;2023-12-20T06:28:45;31.40;;;15.90;;
71080;SDS011;58740;50.672;18.690;2023-12-20T06:31:18;21.40;;;11.10;;
71080;SDS011;58740;50.672;18.690;2023-12-20T06:33:52;53.50;;;24.50;;
71080;SDS011;58740;50.672;18.690;2023-12-20T06:36:28;24.70;;;11.70;;
71080;SDS011;58740;50.672;18.690;2023-12-20T06:39:01;26.20;;;11.00;;
71080;SDS011;58740;50.672;18.690;2023-12-20T06:41:35;26.10;;;10.70;;
71080;SDS011;58740;50.672;18.690;2023-12-20T06:44:08;33.00;;;13.20;;
71080;SDS011;58740;50.672;18.690;2023-12-20T06:46:41;25.80;;;11.60;;
71080;SDS011;58740;50.672;18.690;2023-12-20T06:49:15;20.90;;;8.80;;
71080;SDS011;58740;50.672;18.690;2023-12-20T06:51:49;24.20;;;9.30;;
71080;SDS011;58740;50.672;18.690;2023-12-20T06:54:23;16.50;;;7.70;;
71080;SDS011;58740;50.672;18.690;2023-12-20T06:56:56;19.80;;;8.30;;
71080;SDS011;58740;50.672;18.690;2023-12-20T06:59:30;25.60;;;12.60;;
71080;SDS011;58740;50.672;18.690;2023-12-20T07:02:03;24.00;;;10.20;;
71080;SDS011;58740;50.672;18.690;2023-12-20T07:04:44;23.10;;;13.20;;
71080;SDS011;58740;50.672;18.690;2023-12-20T07:07:17;16.60;;;9.40;;
71080;SDS011;58740;50.672;18.690;2023-12-20T07:09:50;12.60;;;7.00;;
71080;SDS011;58740;50.672;18.690;2023-12-20T07:12:23;11.50;;;5.90;;
71080;SDS011;58740;50.672;18.690;2023-12-20T07:14:57;25.80;;;11.00;;
71080;SDS011;58740;50.672;18.690;2023-12-20T07:17:30;17.80;;;7.00;;
71080;SDS011;58740;50.672;18.690;2023-12-20T07:20:06;9.50;;;4.90;;
71080;SDS011;58740;50.672;18.690;2023-12-20T07:22:41;9.10;;;4.20;;
71080;SDS011;58740;50.672;18.690;2023-12-20T07:25:14;9.30;;;4.90;;
71080;SDS011;58740;50.672;18.690;2023-12-20T07:27:48;11.20;;;5.90;;
71080;SDS011;58740;50.672;18.690;2023-12-20T07:30:22;20.70;;;9.90;;
71080;SDS011;58740;50.672;18.690;2023-12-20T07:32:55;13.80;;;7.60;;
71080;SDS011;58740;50.672;18.690;2023-12-20T07:35:28;11.70;;;5.90;;
71080;SDS011;58740;50.672;18.690;2023-12-20T07:38:02;8.60;;;4.60;;
71080;SDS011;58740;50.672;18.690;2023-12-20T07:40:35;8.20;;;4.20;;
71080;SDS011;58740;50.672;18.690;2023-12-20T07:43:09;8.40;;;4.60;;
71080;SDS011;58740;50.672;18.690;2023-12-20T07:45:42;7.80;;;3.80;;
71080;SDS011;58740;50.672;18.690;2023-12-20T07:48:16;8.00;;;4.10;;
71080;SDS011;58740;50.672;18.690;2023-12-20T07:50:49;8.50;;;4.50;;
71080;SDS011;58740;50.672;18.690;2023-12-20T07:53:23;8.30;;;4.30;;
71080;SDS011;58740;50.672;18.690;2023-12-20T07:55:56;9.30;;;5.00;;
71080;SDS011;58740;50.672;18.690;2023-12-20T07:58:29;8.60;;;4.10;;
71080;SDS011;58740;50.672;18.690;2023-12-20T08:01:20;7.80;;;4.20;;
71080;SDS011;58740;50.672;18.690;2023-12-20T08:03:54;7.20;;;3.10;;
71080;SDS011;58740;50.672;18.690;2023-12-20T08:06:27;9.50;;;4.70;;
71080;SDS011;58740;50.672;18.690;2023-12-20T08:09:00;11.20;;;4.80;;
71080;SDS011;58740;50.672;18.690;2023-12-20T08:11:36;10.60;;;5.80;;
71080;SDS011;58740;50.672;18.690;2023-12-20T08:14:10;11.70;;;5.20;;
71080;SDS011;58740;50.672;18.690;2023-12-20T08:16:43;9.40;;;4.50;;
71080;SDS011;58740;50.672;18.690;2023-12-20T08:19:16;9.90;;;5.10;;
71080;SDS011;58740;50.672;18.690;2023-12-20T08:21:50;9.50;;;4.60;;
71080;SDS011;58740;50.672;18.690;2023-12-20T08:24:23;12.60;;;5.60;;
71080;SDS011;58740;50.672;18.690;2023-12-20T08:26:56;8.00;;;4.20;;
71080;SDS011;58740;50.672;18.690;2023-12-20T08:29:30;9.60;;;4.80;;
71080;SDS011;58740;50.672;18.690;2023-12-20T08:32:04;9.90;;;5.70;;
71080;SDS011;58740;50.672;18.690;2023-12-20T08:34:37;9.50;;;4.90;;
71080;SDS011;58740;50.672;18.690;2023-12-20T08:37:11;7.20;;;3.70;;
71080;SDS011;58740;50.672;18.690;2023-12-20T08:39:44;6.70;;;3.30;;
71080;SDS011;58740;50.672;18.690;2023-12-20T08:42:17;8.40;;;5.10;;
71080;SDS011;58740;50.672;18.690;2023-12-20T08:44:51;6.70;;;3.80;;
71080;SDS011;58740;50.672;18.690;2023-12-20T08:47:24;6.50;;;3.00;;
71080;SDS011;58740;50.672;18.690;2023-12-20T08:49:57;7.70;;;3.30;;
71080;SDS011;58740;50.672;18.690;2023-12-20T08:52:32;8.70;;;4.10;;
71080;SDS011;58740;50.672;18.690;2023-12-20T08:55:07;6.00;;;2.70;;
71080;SDS011;58740;50.672;18.690;2023-12-20T08:57:41;5.10;;;2.30;;
71080;SDS011;58740;50.672;18.690;2023-12-20T09:00:17;5.00;;;2.20;;
71080;SDS011;58740;50.672;18.690;2023-12-20T09:02:54;4.90;;;2.20;;
71080;SDS011;58740;50.672;18.690;2023-12-20T09:05:28;4.50;;;2.20;;
71080;SDS011;58740;50.672;18.690;2023-12-20T09:08:01;5.60;;;2.30;;
71080;SDS011;58740;50.672;18.690;2023-12-20T09:10:35;5.30;;;1.80;;
71080;SDS011;58740;50.672;18.690;2023-12-20T09:13:09;5.30;;;2.00;;
71080;SDS011;58740;50.672;18.690;2023-12-20T09:15:42;5.90;;;2.80;;
71080;SDS011;58740;50.672;18.690;2023-12-20T09:18:15;6.70;;;3.20;;
71080;SDS011;58740;50.672;18.690;2023-12-20T09:20:49;6.40;;;2.60;;
71080;SDS011;58740;50.672;18.690;2023-12-20T09:23:22;8.70;;;4.00;;
71080;SDS011;58740;50.672;18.690;2023-12-20T09:25:55;6.90;;;3.00;;
71080;SDS011;58740;50.672;18.690;2023-12-20T09:28:29;10.60;;;5.90;;
71080;SDS011;58740;50.672;18.690;2023-12-20T09:31:07;9.60;;;4.30;;
71080;SDS011;58740;50.672;18.690;2023-12-20T09:33:40;7.00;;;2.70;;
71080;SDS011;58740;50.672;18.690;2023-12-20T09:36:14;6.00;;;2.90;;
71080;SDS011;58740;50.672;18.690;2023-12-20T09:38:47;5.30;;;2.40;;
71080;SDS011;58740;50.672;18.690;2023-12-20T09:41:22;5.40;;;2.10;;
71080;SDS011;58740;50.672;18.690;2023-12-20T09:43:58;5.40;;;2.90;;
71080;SDS011;58740;50.672;18.690;2023-12-20T09:46:34;6.10;;;2.20;;
71080;SDS011;58740;50.672;18.690;2023-12-20T09:49:10;6.80;;;3.60;;
71080;SDS011;58740;50.672;18.690;2023-12-20T09:51:44;7.10;;;3.30;;
71080;SDS011;58740;50.672;18.690;2023-12-20T09:54:20;6.50;;;3.10;;
71080;SDS011;58740;50.672;18.690;2023-12-20T09:56:54;4.30;;;2.10;;
71080;SDS011;58740;50.672;18.690;2023-12-20T09:59:27;8.10;;;3.50;;
71080;SDS011;58740;50.672;18.690;2023-12-20T10:02:02;6.30;;;3.30;;
71080;SDS011;58740;50.672;18.690;2023-12-20T10:04:46;6.50;;;2.50;;
71080;SDS011;58740;50.672;18.690;2023-12-20T10:07:20;9.60;;;4.50;;
71080;SDS011;58740;50.672;18.690;2023-12-20T10:09:55;8.80;;;3.40;;
71080;SDS011;58740;50.672;18.690;2023-12-20T10:12:29;12.00;;;4.40;;
71080;SDS011;58740;50.672;18.690;2023-12-20T10:15:02;7.10;;;3.30;;
71080;SDS011;58740;50.672;18.690;2023-12-20T10:17:36;7.70;;;4.20;;
71080;SDS011;58740;50.672;18.690;2023-12-20T10:20:11;6.40;;;2.80;;
71080;SDS011;58740;50.672;18.690;2023-12-20T10:22:45;7.00;;;3.50;;
71080;SDS011;58740;50.672;18.690;2023-12-20T10:25:19;5.40;;;2.50;;
71080;SDS011;58740;50.672;18.690;2023-12-20T10:28:10;5.50;;;2.20;;
71080;SDS011;58740;50.672;18.690;2023-12-20T10:30:45;14.90;;;8.80;;
71080;SDS011;58740;50.672;18.690;2023-12-20T10:33:25;8.30;;;4.30;;
71080;SDS011;58740;50.672;18.690;2023-12-20T10:36:00;6.30;;;3.10;;
71080;SDS011;58740;50.672;18.690;2023-12-20T10:38:34;7.40;;;2.90;;
71080;SDS011;58740;50.672;18.690;2023-12-20T10:41:12;7.00;;;3.30;;
71080;SDS011;58740;50.672;18.690;2023-12-20T10:43:48;4.40;;;1.90;;
71080;SDS011;58740;50.672;18.690;2023-12-20T10:46:22;4.70;;;2.20;;
71080;SDS011;58740;50.672;18.690;2023-12-20T10:48:57;7.20;;;2.90;;
71080;SDS011;58740;50.672;18.690;2023-12-20T10:51:31;8.00;;;3.60;;
71080;SDS011;58740;50.672;18.690;2023-12-20T10:54:06;7.30;;;3.60;;
71080;SDS011;58740;50.672;18.690;2023-12-20T10:56:39;6.70;;;2.90;;
71080;SDS011;58740;50.672;18.690;2023-12-20T10:59:15;8.20;;;4.10;;
71080;SDS011;58740;50.672;18.690;2023-12-20T11:01:55;6.20;;;3.50;;
71080;SDS011;58740;50.672;18.690;2023-12-20T11:04:50;7.30;;;3.70;;
71080;SDS011;58740;50.672;18.690;2023-12-20T11:07:32;9.40;;;4.40;;
71080;SDS011;58740;50.672;18.690;2023-12-20T11:10:13;12.40;;;5.40;;
71080;SDS011;58740;50.672;18.690;2023-12-20T11:12:53;14.60;;;7.40;;
71080;SDS011;58740;50.672;18.690;2023-12-20T11:15:30;12.30;;;5.20;;
71080;SDS011;58740;50.672;18.690;2023-12-20T11:18:05;11.50;;;4.50;;
71080;SDS011;58740;50.672;18.690;2023-12-20T11:20:40;10.90;;;4.60;;
71080;SDS011;58740;50.672;18.690;2023-12-20T11:23:14;11.10;;;4.00;;
71080;SDS011;58740;50.672;18.690;2023-12-20T11:25:53;9.20;;;5.40;;
71080;SDS011;58740;50.672;18.690;2023-12-20T11:28:29;10.50;;;3.90;;
71080;SDS011;58740;50.672;18.690;2023-12-20T11:31:03;6.00;;;2.70;;
71080;SDS011;58740;50.672;18.690;2023-12-20T11:33:38;9.90;;;3.50;;
71080;SDS011;58740;50.672;18.690;2023-12-20T11:36:19;8.60;;;4.50;;
71080;SDS011;58740;50.672;18.690;2023-12-20T11:38:57;6.20;;;2.50;;
71080;SDS011;58740;50.672;18.690;2023-12-20T11:41:33;8.00;;;3.50;;
71080;SDS011;58740;50.672;18.690;2023-12-20T11:44:08;11.30;;;5.00;;
71080;SDS011;58740;50.672;18.690;2023-12-20T11:46:42;7.90;;;4.10;;
71080;SDS011;58740;50.672;18.690;2023-12-20T11:49:15;9.50;;;3.80;;
71080;SDS011;58740;50.672;18.690;2023-12-20T11:51:49;11.00;;;6.20;;
71080;SDS011;58740;50.672;18.690;2023-12-20T11:54:22;13.30;;;7.50;;
71080;SDS011;58740;50.672;18.690;2023-12-20T11:56:56;11.30;;;5.20;;
71080;SDS011;58740;50.672;18.690;2023-12-20T11:59:29;12.00;;;5.60;;
71080;SDS011;58740;50.672;18.690;2023-12-20T12:02:03;7.00;;;3.70;;
71080;SDS011;58740;50.672;18.690;2023-12-20T12:04:37;7.50;;;4.30;;
71080;SDS011;58740;50.672;18.690;2023-12-20T12:07:12;8.80;;;3.40;;
71080;SDS011;58740;50.672;18.690;2023-12-20T12:09:46;6.90;;;3.00;;
71080;SDS011;58740;50.672;18.690;2023-12-20T12:12:20;5.90;;;2.70;;
71080;SDS011;58740;50.672;18.690;2023-12-20T12:14:56;8.20;;;4.40;;
71080;SDS011;58740;50.672;18.690;2023-12-20T12:17:30;8.80;;;3.80;;
71080;SDS011;58740;50.672;18.690;2023-12-20T12:20:08;8.30;;;3.80;;
71080;SDS011;58740;50.672;18.690;2023-12-20T12:22:43;9.40;;;3.30;;
71080;SDS011;58740;50.672;18.690;2023-12-20T12:25:18;8.60;;;3.80;;
71080;SDS011;58740;50.672;18.690;2023-12-20T12:27:53;9.10;;;5.00;;
71080;SDS011;58740;50.672;18.690;2023-12-20T12:30:27;12.40;;;5.60;;
71080;SDS011;58740;50.672;18.690;2023-12-20T12:33:08;13.10;;;4.90;;
71080;SDS011;58740;50.672;18.690;2023-12-20T12:35:43;9.30;;;5.60;;
71080;SDS011;58740;50.672;18.690;2023-12-20T12:38:21;8.70;;;4.60;;
71080;SDS011;58740;50.672;18.690;2023-12-20T12:40:55;7.00;;;3.20;;
71080;SDS011;58740;50.672;18.690;2023-12-20T12:43:29;7.80;;;3.60;;
71080;SDS011;58740;50.672;18.690;2023-12-20T12:46:06;9.00;;;3.50;;
71080;SDS011;58740;50.672;18.690;2023-12-20T12:48:39;20.00;;;6.10;;
71080;SDS011;58740;50.672;18.690;2023-12-20T12:51:16;30.00;;;12.30;;
71080;SDS011;58740;50.672;18.690;2023-12-20T12:53:49;19.20;;;8.90;;
71080;SDS011;58740;50.672;18.690;2023-12-20T12:56:23;19.20;;;9.60;;
71080;SDS011;58740;50.672;18.690;2023-12-20T12:58:56;13.20;;;5.50;;
71080;SDS011;58740;50.672;18.690;2023-12-20T13:01:29;11.80;;;4.80;;
71080;SDS011;58740;50.672;18.690;2023-12-20T13:04:02;11.40;;;4.70;;
71080;SDS011;58740;50.672;18.690;2023-12-20T13:06:42;10.60;;;4.90;;
71080;SDS011;58740;50.672;18.690;2023-12-20T13:09:16;10.50;;;4.80;;
71080;SDS011;58740;50.672;18.690;2023-12-20T13:11:49;14.30;;;5.50;;
71080;SDS011;58740;50.672;18.690;2023-12-20T13:14:22;10.30;;;5.60;;
71080;SDS011;58740;50.672;18.690;2023-12-20T13:16:56;13.50;;;6.90;;
71080;SDS011;58740;50.672;18.690;2023-12-20T13:19:29;11.80;;;5.30;;
71080;SDS011;58740;50.672;18.690;2023-12-20T13:22:02;14.00;;;6.10;;
71080;SDS011;58740;50.672;18.690;2023-12-20T13:24:36;11.10;;;5.40;;
71080;SDS011;58740;50.672;18.690;2023-12-20T13:27:10;8.60;;;3.50;;
71080;SDS011;58740;50.672;18.690;2023-12-20T13:29:44;8.90;;;3.30;;
71080;SDS011;58740;50.672;18.690;2023-12-20T13:32:17;9.40;;;3.90;;
71080;SDS011;58740;50.672;18.690;2023-12-20T13:34:50;6.50;;;3.20;;
71080;SDS011;58740;50.672;18.690;2023-12-20T13:37:24;8.50;;;4.60;;
71080;SDS011;58740;50.672;18.690;2023-12-20T13:39:57;24.00;;;13.50;;
71080;SDS011;58740;50.672;18.690;2023-12-20T13:42:31;16.40;;;8.40;;
71080;SDS011;58740;50.672;18.690;2023-12-20T13:45:06;11.30;;;4.80;;
71080;SDS011;58740;50.672;18.690;2023-12-20T13:47:40;8.30;;;3.50;;
71080;SDS011;58740;50.672;18.690;2023-12-20T13:50:14;11.30;;;4.80;;
71080;SDS011;58740;50.672;18.690;2023-12-20T13:52:48;9.10;;;4.40;;
71080;SDS011;58740;50.672;18.690;2023-12-20T13:55:21;10.90;;;3.70;;
71080;SDS011;58740;50.672;18.690;2023-12-20T13:57:55;8.10;;;3.70;;
71080;SDS011;58740;50.672;18.690;2023-12-20T14:00:30;15.00;;;5.80;;
71080;SDS011;58740;50.672;18.690;2023-12-20T14:03:03;11.30;;;5.10;;
71080;SDS011;58740;50.672;18.690;2023-12-20T14:05:37;12.10;;;4.40;;
71080;SDS011;58740;50.672;18.690;2023-12-20T14:08:11;10.50;;;4.00;;
71080;SDS011;58740;50.672;18.690;2023-12-20T14:10:44;12.70;;;4.80;;
71080;SDS011;58740;50.672;18.690;2023-12-20T14:13:19;9.80;;;4.00;;
71080;SDS011;58740;50.672;18.690;2023-12-20T14:15:52;11.10;;;4.60;;
71080;SDS011;58740;50.672;18.690;2023-12-20T14:18:26;11.30;;;5.30;;
71080;SDS011;58740;50.672;18.690;2023-12-20T14:21:00;11.70;;;6.00;;
71080;SDS011;58740;50.672;18.690;2023-12-20T14:23:34;15.90;;;7.50;;
71080;SDS011;58740;50.672;18.690;2023-12-20T14:26:07;10.80;;;5.60;;
71080;SDS011;58740;50.672;18.690;2023-12-20T14:28:44;13.40;;;7.20;;
71080;SDS011;58740;50.672;18.690;2023-12-20T14:31:18;15.00;;;6.10;;
71080;SDS011;58740;50.672;18.690;2023-12-20T14:33:53;17.60;;;8.90;;
71080;SDS011;58740;50.672;18.690;2023-12-20T14:36:26;20.90;;;12.30;;
71080;SDS011;58740;50.672;18.690;2023-12-20T14:39:00;22.30;;;13.30;;
71080;SDS011;58740;50.672;18.690;2023-12-20T14:41:34;14.10;;;8.20;;
71080;SDS011;58740;50.672;18.690;2023-12-20T14:44:08;14.80;;;8.10;;
71080;SDS011;58740;50.672;18.690;2023-12-20T14:46:41;9.90;;;4.90;;
71080;SDS011;58740;50.672;18.690;2023-12-20T14:49:14;13.70;;;6.70;;
71080;SDS011;58740;50.672;18.690;2023-12-20T14:51:48;10.20;;;6.00;;
71080;SDS011;58740;50.672;18.690;2023-12-20T14:54:21;13.20;;;6.90;;
71080;SDS011;58740;50.672;18.690;2023-12-20T14:56:54;14.10;;;8.00;;
71080;SDS011;58740;50.672;18.690;2023-12-20T14:59:35;21.00;;;12.70;;
71080;SDS011;58740;50.672;18.690;2023-12-20T15:02:08;27.30;;;16.90;;
71080;SDS011;58740;50.672;18.690;2023-12-20T15:04:41;11.40;;;6.60;;